sensor_id;sensor_type;location;lat;lon;timestamp;temperature;humidity
262;DHT22;114;48.260;10.988;2023-08-31T00:00:43;11.90;1.00
262;DHT22;114;48.260;10.988;2023-08-31T00:03:10;11.90;1.00
262;DHT22;114;48.260;10.988;2023-08-31T00:05:42;11.90;1.00
262;DHT22;114;48.260;10.988;2023-08-31T00:08:09;11.90;1.00
262;DHT22;114;48.260;10.988;2023-08-31T00:10:37;11.90;1.00
262;DHT22;114;48.260;10.988;2023-08-31T00:13:03;11.90;1.00
262;DHT22;114;48.260;10.988;2023-08-31T00:15:29;11.90;1.00
262;DHT22;114;48.260;10.988;2023-08-31T00:17:58;11.90;1.00
262;DHT22;114;48.260;10.988;2023-08-31T00:20:24;12.00;1.00
262;DHT22;114;48.260;10.988;2023-08-31T00:22:51;12.00;1.00
262;DHT22;114;48.260;10.988;2023-08-31T00:25:17;11.90;1.00
262;DHT22;114;48.260;10.988;2023-08-31T00:27:43;11.90;1.00
262;DHT22;114;48.260;10.988;2023-08-31T00:30:10;11.90;1.00
262;DHT22;114;48.260;10.988;2023-08-31T00:32:39;11.90;1.00
262;DHT22;114;48.260;10.988;2023-08-31T00:35:06;12.00;1.00
262;DHT22;114;48.260;10.988;2023-08-31T00:37:33;12.00;1.00
262;DHT22;114;48.260;10.988;2023-08-31T00:39:59;12.00;1.00
262;DHT22;114;48.260;10.988;2023-08-31T00:42:25;12.10;1.00
262;DHT22;114;48.260;10.988;2023-08-31T00:44:51;12.10;1.00
262;DHT22;114;48.260;10.988;2023-08-31T00:47:17;12.20;1.00
262;DHT22;114;48.260;10.988;2023-08-31T00:49:43;12.30;1.00
262;DHT22;114;48.260;10.988;2023-08-31T00:52:10;12.30;1.00
262;DHT22;114;48.260;10.988;2023-08-31T00:54:36;12.30;1.00
262;DHT22;114;48.260;10.988;2023-08-31T00:57:02;12.40;1.00
262;DHT22;114;48.260;10.988;2023-08-31T00:59:29;12.40;1.00
262;DHT22;114;48.260;10.988;2023-08-31T01:07:04;12.50;1.00
262;DHT22;114;48.260;10.988;2023-08-31T01:09:35;12.50;1.00
262;DHT22;114;48.260;10.988;2023-08-31T01:12:10;12.50;1.00
262;DHT22;114;48.260;10.988;2023-08-31T01:14:44;12.50;1.00
262;DHT22;114;48.260;10.988;2023-08-31T01:17:15;12.50;1.00
262;DHT22;114;48.260;10.988;2023-08-31T01:19:48;12.50;1.00
262;DHT22;114;48.260;10.988;2023-08-31T01:22:47;12.50;1.00
262;DHT22;114;48.260;10.988;2023-08-31T01:25:17;12.50;1.00
262;DHT22;114;48.260;10.988;2023-08-31T01:27:43;12.40;1.00
262;DHT22;114;48.260;10.988;2023-08-31T01:30:09;12.40;1.00
262;DHT22;114;48.260;10.988;2023-08-31T01:32:36;12.30;1.00
262;DHT22;114;48.260;10.988;2023-08-31T01:35:04;12.20;1.00
262;DHT22;114;48.260;10.988;2023-08-31T01:40:04;12.10;1.00
262;DHT22;114;48.260;10.988;2023-08-31T01:42:32;12.30;1.00
262;DHT22;114;48.260;10.988;2023-08-31T01:44:59;12.30;1.00
262;DHT22;114;48.260;10.988;2023-08-31T01:47:26;12.30;1.00
262;DHT22;114;48.260;10.988;2023-08-31T01:49:52;12.40;1.00
262;DHT22;114;48.260;10.988;2023-08-31T01:52:18;12.50;1.00
262;DHT22;114;48.260;10.988;2023-08-31T01:54:44;12.50;1.00
262;DHT22;114;48.260;10.988;2023-08-31T01:57:10;12.60;1.00
262;DHT22;114;48.260;10.988;2023-08-31T01:59:36;12.60;1.00
262;DHT22;114;48.260;10.988;2023-08-31T02:02:01;12.60;1.00
262;DHT22;114;48.260;10.988;2023-08-31T02:04:27;12.60;1.00
262;DHT22;114;48.260;10.988;2023-08-31T02:06:53;12.60;1.00
262;DHT22;114;48.260;10.988;2023-08-31T02:09:20;12.60;1.00
262;DHT22;114;48.260;10.988;2023-08-31T02:11:46;12.60;1.00
262;DHT22;114;48.260;10.988;2023-08-31T02:14:11;12.50;1.00
262;DHT22;114;48.260;10.988;2023-08-31T02:16:38;12.50;1.00
262;DHT22;114;48.260;10.988;2023-08-31T02:19:03;12.50;1.00
262;DHT22;114;48.260;10.988;2023-08-31T02:21:29;12.60;1.00
262;DHT22;114;48.260;10.988;2023-08-31T02:23:55;12.70;1.00
262;DHT22;114;48.260;10.988;2023-08-31T02:26:22;12.80;1.00
262;DHT22;114;48.260;10.988;2023-08-31T02:28:48;12.80;1.00
262;DHT22;114;48.260;10.988;2023-08-31T02:31:14;12.80;1.00
262;DHT22;114;48.260;10.988;2023-08-31T02:33:40;12.90;1.00
262;DHT22;114;48.260;10.988;2023-08-31T02:36:06;12.90;1.00
262;DHT22;114;48.260;10.988;2023-08-31T02:38:31;12.90;1.00
262;DHT22;114;48.260;10.988;2023-08-31T02:40:57;12.80;1.00
262;DHT22;114;48.260;10.988;2023-08-31T02:43:23;12.80;1.00
262;DHT22;114;48.260;10.988;2023-08-31T02:45:58;12.80;1.00
262;DHT22;114;48.260;10.988;2023-08-31T02:48:24;12.80;1.00
262;DHT22;114;48.260;10.988;2023-08-31T02:50:50;12.70;1.00
262;DHT22;114;48.260;10.988;2023-08-31T02:53:16;12.70;1.00
262;DHT22;114;48.260;10.988;2023-08-31T02:55:42;12.70;1.00
262;DHT22;114;48.260;10.988;2023-08-31T02:58:08;12.70;1.00
262;DHT22;114;48.260;10.988;2023-08-31T03:00:34;12.70;1.00
262;DHT22;114;48.260;10.988;2023-08-31T03:02:59;12.70;1.00
262;DHT22;114;48.260;10.988;2023-08-31T03:05:25;12.70;1.00
262;DHT22;114;48.260;10.988;2023-08-31T03:07:51;12.60;1.00
262;DHT22;114;48.260;10.988;2023-08-31T03:10:17;12.70;1.00
262;DHT22;114;48.260;10.988;2023-08-31T03:12:43;12.80;1.00
262;DHT22;114;48.260;10.988;2023-08-31T03:15:09;12.70;1.00
262;DHT22;114;48.260;10.988;2023-08-31T03:17:35;12.70;1.00
262;DHT22;114;48.260;10.988;2023-08-31T03:20:00;12.70;1.00
262;DHT22;114;48.260;10.988;2023-08-31T03:22:26;12.70;1.00
262;DHT22;114;48.260;10.988;2023-08-31T03:24:52;12.70;1.00
262;DHT22;114;48.260;10.988;2023-08-31T03:27:17;12.90;1.00
262;DHT22;114;48.260;10.988;2023-08-31T03:29:44;12.90;1.00
262;DHT22;114;48.260;10.988;2023-08-31T03:32:10;12.80;1.00
262;DHT22;114;48.260;10.988;2023-08-31T03:34:36;12.80;1.00
262;DHT22;114;48.260;10.988;2023-08-31T03:37:02;12.80;1.00
262;DHT22;114;48.260;10.988;2023-08-31T03:39:28;12.70;1.00
262;DHT22;114;48.260;10.988;2023-08-31T03:41:54;12.60;1.00
262;DHT22;114;48.260;10.988;2023-08-31T03:44:23;12.60;1.00
262;DHT22;114;48.260;10.988;2023-08-31T03:46:49;12.60;1.00
262;DHT22;114;48.260;10.988;2023-08-31T03:49:14;12.60;1.00
262;DHT22;114;48.260;10.988;2023-08-31T03:51:40;12.50;1.00
262;DHT22;114;48.260;10.988;2023-08-31T03:54:06;12.50;1.00
262;DHT22;114;48.260;10.988;2023-08-31T03:56:32;12.40;1.00
262;DHT22;114;48.260;10.988;2023-08-31T03:58:57;12.40;1.00
262;DHT22;114;48.260;10.988;2023-08-31T04:01:23;12.50;1.00
262;DHT22;114;48.260;10.988;2023-08-31T04:03:49;12.50;1.00
262;DHT22;114;48.260;10.988;2023-08-31T04:06:15;12.40;1.00
262;DHT22;114;48.260;10.988;2023-08-31T04:08:40;12.40;1.00
262;DHT22;114;48.260;10.988;2023-08-31T04:11:06;12.20;1.00
262;DHT22;114;48.260;10.988;2023-08-31T04:13:32;12.20;1.00
262;DHT22;114;48.260;10.988;2023-08-31T04:15:57;12.20;1.00
262;DHT22;114;48.260;10.988;2023-08-31T04:18:23;12.30;1.00
262;DHT22;114;48.260;10.988;2023-08-31T04:20:50;12.20;1.00
262;DHT22;114;48.260;10.988;2023-08-31T04:23:17;12.20;1.00
262;DHT22;114;48.260;10.988;2023-08-31T04:25:44;12.20;1.00
262;DHT22;114;48.260;10.988;2023-08-31T04:28:10;12.10;1.00
262;DHT22;114;48.260;10.988;2023-08-31T04:30:36;12.10;1.00
262;DHT22;114;48.260;10.988;2023-08-31T04:33:02;12.10;1.00
262;DHT22;114;48.260;10.988;2023-08-31T04:35:30;12.30;1.00
262;DHT22;114;48.260;10.988;2023-08-31T04:37:57;12.40;1.00
262;DHT22;114;48.260;10.988;2023-08-31T04:40:23;12.30;1.00
262;DHT22;114;48.260;10.988;2023-08-31T04:42:50;12.20;1.00
262;DHT22;114;48.260;10.988;2023-08-31T04:45:16;12.20;1.00
262;DHT22;114;48.260;10.988;2023-08-31T04:47:42;12.30;1.00
262;DHT22;114;48.260;10.988;2023-08-31T04:50:08;12.80;1.00
262;DHT22;114;48.260;10.988;2023-08-31T04:52:34;13.10;1.00
262;DHT22;114;48.260;10.988;2023-08-31T04:55:05;13.10;1.00
262;DHT22;114;48.260;10.988;2023-08-31T04:57:33;13.10;1.00
262;DHT22;114;48.260;10.988;2023-08-31T04:59:59;13.10;1.00
262;DHT22;114;48.260;10.988;2023-08-31T05:02:24;13.40;1.00
262;DHT22;114;48.260;10.988;2023-08-31T05:04:51;13.50;1.00
262;DHT22;114;48.260;10.988;2023-08-31T05:07:16;13.50;1.00
262;DHT22;114;48.260;10.988;2023-08-31T05:09:42;13.60;1.00
262;DHT22;114;48.260;10.988;2023-08-31T05:12:08;13.60;1.00
262;DHT22;114;48.260;10.988;2023-08-31T05:14:34;13.70;1.00
262;DHT22;114;48.260;10.988;2023-08-31T05:17:03;14.10;1.00
262;DHT22;114;48.260;10.988;2023-08-31T05:19:30;13.90;1.00
262;DHT22;114;48.260;10.988;2023-08-31T05:21:56;13.70;1.00
262;DHT22;114;48.260;10.988;2023-08-31T05:24:23;13.70;1.00
262;DHT22;114;48.260;10.988;2023-08-31T05:26:52;14.00;1.00
262;DHT22;114;48.260;10.988;2023-08-31T05:29:17;14.90;1.00
262;DHT22;114;48.260;10.988;2023-08-31T05:31:43;16.10;1.00
262;DHT22;114;48.260;10.988;2023-08-31T05:34:16;17.50;1.00
262;DHT22;114;48.260;10.988;2023-08-31T05:36:43;18.10;1.00
262;DHT22;114;48.260;10.988;2023-08-31T05:39:09;18.40;1.00
262;DHT22;114;48.260;10.988;2023-08-31T05:41:35;18.40;1.00
262;DHT22;114;48.260;10.988;2023-08-31T05:44:01;18.50;1.00
262;DHT22;114;48.260;10.988;2023-08-31T05:46:27;18.50;1.00
262;DHT22;114;48.260;10.988;2023-08-31T05:48:53;17.90;1.00
262;DHT22;114;48.260;10.988;2023-08-31T05:51:19;17.40;1.00
262;DHT22;114;48.260;10.988;2023-08-31T05:53:44;17.50;1.00
262;DHT22;114;48.260;10.988;2023-08-31T05:56:10;17.70;1.00
262;DHT22;114;48.260;10.988;2023-08-31T05:58:36;17.80;1.00
262;DHT22;114;48.260;10.988;2023-08-31T06:01:03;17.90;1.00
262;DHT22;114;48.260;10.988;2023-08-31T06:03:30;17.30;1.00
262;DHT22;114;48.260;10.988;2023-08-31T06:05:56;15.70;1.00
262;DHT22;114;48.260;10.988;2023-08-31T06:08:23;15.00;1.00
262;DHT22;114;48.260;10.988;2023-08-31T06:10:49;14.50;1.00
262;DHT22;114;48.260;10.988;2023-08-31T06:13:15;14.40;1.00
262;DHT22;114;48.260;10.988;2023-08-31T06:15:41;14.30;1.00
262;DHT22;114;48.260;10.988;2023-08-31T06:18:07;14.10;1.00
262;DHT22;114;48.260;10.988;2023-08-31T06:20:33;14.00;1.00
262;DHT22;114;48.260;10.988;2023-08-31T06:23:02;13.90;1.00
262;DHT22;114;48.260;10.988;2023-08-31T06:25:28;13.90;1.00
262;DHT22;114;48.260;10.988;2023-08-31T06:27:54;13.70;1.00
262;DHT22;114;48.260;10.988;2023-08-31T06:30:20;13.70;1.00
262;DHT22;114;48.260;10.988;2023-08-31T06:32:47;13.80;1.00
262;DHT22;114;48.260;10.988;2023-08-31T06:35:14;13.90;1.00
262;DHT22;114;48.260;10.988;2023-08-31T06:37:41;14.00;1.00
262;DHT22;114;48.260;10.988;2023-08-31T06:40:07;13.90;1.00
262;DHT22;114;48.260;10.988;2023-08-31T06:42:37;13.90;1.00
262;DHT22;114;48.260;10.988;2023-08-31T06:45:06;13.90;1.00
262;DHT22;114;48.260;10.988;2023-08-31T06:47:33;14.10;1.00
262;DHT22;114;48.260;10.988;2023-08-31T06:49:59;14.20;1.00
262;DHT22;114;48.260;10.988;2023-08-31T06:52:26;14.10;1.00
262;DHT22;114;48.260;10.988;2023-08-31T06:54:52;14.10;1.00
262;DHT22;114;48.260;10.988;2023-08-31T06:57:26;14.20;1.00
262;DHT22;114;48.260;10.988;2023-08-31T06:59:52;14.20;1.00
262;DHT22;114;48.260;10.988;2023-08-31T07:02:18;14.20;1.00
262;DHT22;114;48.260;10.988;2023-08-31T07:04:45;14.20;1.00
262;DHT22;114;48.260;10.988;2023-08-31T07:07:11;14.30;1.00
262;DHT22;114;48.260;10.988;2023-08-31T07:09:43;14.30;1.00
262;DHT22;114;48.260;10.988;2023-08-31T07:12:13;14.50;1.00
262;DHT22;114;48.260;10.988;2023-08-31T07:14:38;14.40;1.00
262;DHT22;114;48.260;10.988;2023-08-31T07:17:04;14.50;1.00
262;DHT22;114;48.260;10.988;2023-08-31T07:19:30;14.50;1.00
262;DHT22;114;48.260;10.988;2023-08-31T07:21:56;14.70;1.00
262;DHT22;114;48.260;10.988;2023-08-31T07:24:25;15.00;1.00
262;DHT22;114;48.260;10.988;2023-08-31T07:26:50;15.40;1.00
262;DHT22;114;48.260;10.988;2023-08-31T07:29:16;15.60;1.00
262;DHT22;114;48.260;10.988;2023-08-31T07:31:42;15.50;1.00
262;DHT22;114;48.260;10.988;2023-08-31T07:34:08;15.40;1.00
262;DHT22;114;48.260;10.988;2023-08-31T07:36:34;15.40;1.00
262;DHT22;114;48.260;10.988;2023-08-31T07:39:00;15.50;1.00
262;DHT22;114;48.260;10.988;2023-08-31T07:41:26;15.60;1.00
262;DHT22;114;48.260;10.988;2023-08-31T07:43:51;15.50;1.00
262;DHT22;114;48.260;10.988;2023-08-31T07:46:18;15.50;1.00
262;DHT22;114;48.260;10.988;2023-08-31T07:48:44;15.50;1.00
262;DHT22;114;48.260;10.988;2023-08-31T07:51:10;15.70;1.00
262;DHT22;114;48.260;10.988;2023-08-31T07:53:36;16.00;1.00
262;DHT22;114;48.260;10.988;2023-08-31T07:56:02;16.00;1.00
262;DHT22;114;48.260;10.988;2023-08-31T07:58:29;15.90;1.00
262;DHT22;114;48.260;10.988;2023-08-31T08:00:55;15.80;1.00
262;DHT22;114;48.260;10.988;2023-08-31T08:03:24;15.90;1.00
262;DHT22;114;48.260;10.988;2023-08-31T08:05:51;16.00;1.00
262;DHT22;114;48.260;10.988;2023-08-31T08:08:16;16.00;1.00
262;DHT22;114;48.260;10.988;2023-08-31T08:10:42;16.20;1.00
262;DHT22;114;48.260;10.988;2023-08-31T08:13:09;16.40;1.00
262;DHT22;114;48.260;10.988;2023-08-31T08:15:35;16.40;1.00
262;DHT22;114;48.260;10.988;2023-08-31T08:18:01;16.60;1.00
262;DHT22;114;48.260;10.988;2023-08-31T08:20:27;16.60;1.00
262;DHT22;114;48.260;10.988;2023-08-31T08:22:54;16.50;1.00
262;DHT22;114;48.260;10.988;2023-08-31T08:25:21;16.50;1.00
262;DHT22;114;48.260;10.988;2023-08-31T08:27:47;16.40;1.00
262;DHT22;114;48.260;10.988;2023-08-31T08:30:14;16.50;1.00
262;DHT22;114;48.260;10.988;2023-08-31T08:32:41;16.50;1.00
262;DHT22;114;48.260;10.988;2023-08-31T08:35:07;16.70;1.00
262;DHT22;114;48.260;10.988;2023-08-31T08:37:33;16.70;1.00
262;DHT22;114;48.260;10.988;2023-08-31T08:39:59;16.60;1.00
262;DHT22;114;48.260;10.988;2023-08-31T08:42:30;16.50;1.00
262;DHT22;114;48.260;10.988;2023-08-31T08:44:57;16.50;1.00
262;DHT22;114;48.260;10.988;2023-08-31T08:47:26;16.60;1.00
262;DHT22;114;48.260;10.988;2023-08-31T08:49:53;16.60;1.00
262;DHT22;114;48.260;10.988;2023-08-31T08:52:20;16.70;1.00
262;DHT22;114;48.260;10.988;2023-08-31T08:54:47;16.70;1.00
262;DHT22;114;48.260;10.988;2023-08-31T08:57:14;16.60;1.00
262;DHT22;114;48.260;10.988;2023-08-31T08:59:40;16.70;1.00
262;DHT22;114;48.260;10.988;2023-08-31T09:02:08;16.70;1.00
262;DHT22;114;48.260;10.988;2023-08-31T09:04:36;16.60;1.00
262;DHT22;114;48.260;10.988;2023-08-31T09:07:02;16.40;1.00
262;DHT22;114;48.260;10.988;2023-08-31T09:09:28;16.10;1.00
262;DHT22;114;48.260;10.988;2023-08-31T09:11:55;15.90;1.00
262;DHT22;114;48.260;10.988;2023-08-31T09:14:23;15.70;1.00
262;DHT22;114;48.260;10.988;2023-08-31T09:16:51;15.60;1.00
262;DHT22;114;48.260;10.988;2023-08-31T09:19:21;15.50;1.00
262;DHT22;114;48.260;10.988;2023-08-31T09:21:48;15.60;1.00
262;DHT22;114;48.260;10.988;2023-08-31T09:24:14;15.50;1.00
262;DHT22;114;48.260;10.988;2023-08-31T09:26:44;15.50;1.00
262;DHT22;114;48.260;10.988;2023-08-31T09:29:11;15.50;1.00
262;DHT22;114;48.260;10.988;2023-08-31T09:31:38;15.60;1.00
262;DHT22;114;48.260;10.988;2023-08-31T09:34:06;15.70;1.00
262;DHT22;114;48.260;10.988;2023-08-31T09:36:32;16.30;1.00
262;DHT22;114;48.260;10.988;2023-08-31T09:38:59;16.70;1.00
262;DHT22;114;48.260;10.988;2023-08-31T09:41:25;16.80;1.00
262;DHT22;114;48.260;10.988;2023-08-31T09:43:50;16.80;1.00
262;DHT22;114;48.260;10.988;2023-08-31T09:46:16;16.70;1.00
262;DHT22;114;48.260;10.988;2023-08-31T09:48:43;16.60;1.00
262;DHT22;114;48.260;10.988;2023-08-31T09:51:14;16.70;1.00
262;DHT22;114;48.260;10.988;2023-08-31T09:53:43;16.70;1.00
262;DHT22;114;48.260;10.988;2023-08-31T09:56:13;16.70;1.00
262;DHT22;114;48.260;10.988;2023-08-31T09:58:43;16.70;1.00
262;DHT22;114;48.260;10.988;2023-08-31T10:01:09;16.40;1.00
262;DHT22;114;48.260;10.988;2023-08-31T10:03:34;16.30;1.00
262;DHT22;114;48.260;10.988;2023-08-31T10:06:01;16.10;1.00
262;DHT22;114;48.260;10.988;2023-08-31T10:08:27;15.70;1.00
262;DHT22;114;48.260;10.988;2023-08-31T10:10:59;15.30;1.00
262;DHT22;114;48.260;10.988;2023-08-31T10:13:31;15.20;1.00
262;DHT22;114;48.260;10.988;2023-08-31T10:16:04;15.20;1.00
262;DHT22;114;48.260;10.988;2023-08-31T10:18:34;15.30;1.00
262;DHT22;114;48.260;10.988;2023-08-31T10:21:02;15.50;1.00
262;DHT22;114;48.260;10.988;2023-08-31T10:23:28;15.90;1.00
262;DHT22;114;48.260;10.988;2023-08-31T10:28:23;16.70;1.00
262;DHT22;114;48.260;10.988;2023-08-31T10:31:06;16.80;1.00
262;DHT22;114;48.260;10.988;2023-08-31T10:33:39;17.10;1.00
262;DHT22;114;48.260;10.988;2023-08-31T10:36:18;17.20;1.00
262;DHT22;114;48.260;10.988;2023-08-31T10:39:00;17.30;1.00
262;DHT22;114;48.260;10.988;2023-08-31T10:41:34;17.60;1.00
262;DHT22;114;48.260;10.988;2023-08-31T10:44:18;17.20;1.00
262;DHT22;114;48.260;10.988;2023-08-31T10:46:45;17.30;1.00
262;DHT22;114;48.260;10.988;2023-08-31T10:54:26;16.90;1.00
262;DHT22;114;48.260;10.988;2023-08-31T10:59:52;16.80;1.00
262;DHT22;114;48.260;10.988;2023-08-31T11:02:29;16.70;1.00
262;DHT22;114;48.260;10.988;2023-08-31T11:04:59;16.70;1.00
262;DHT22;114;48.260;10.988;2023-08-31T11:07:26;16.80;1.00
262;DHT22;114;48.260;10.988;2023-08-31T11:10:10;16.80;1.00
262;DHT22;114;48.260;10.988;2023-08-31T11:12:46;17.00;1.00
262;DHT22;114;48.260;10.988;2023-08-31T11:15:15;17.40;1.00
262;DHT22;114;48.260;10.988;2023-08-31T11:17:42;18.10;1.00
262;DHT22;114;48.260;10.988;2023-08-31T11:20:16;19.00;1.00
262;DHT22;114;48.260;10.988;2023-08-31T11:22:43;19.20;1.00
262;DHT22;114;48.260;10.988;2023-08-31T11:25:12;19.50;1.00
262;DHT22;114;48.260;10.988;2023-08-31T11:27:40;19.90;1.00
262;DHT22;114;48.260;10.988;2023-08-31T11:30:15;19.50;1.00
262;DHT22;114;48.260;10.988;2023-08-31T11:32:46;18.90;1.00
262;DHT22;114;48.260;10.988;2023-08-31T11:35:12;18.50;1.00
262;DHT22;114;48.260;10.988;2023-08-31T11:37:37;18.20;1.00
262;DHT22;114;48.260;10.988;2023-08-31T11:40:04;18.10;1.00
262;DHT22;114;48.260;10.988;2023-08-31T11:42:31;17.80;1.00
262;DHT22;114;48.260;10.988;2023-08-31T11:44:57;17.50;1.00
262;DHT22;114;48.260;10.988;2023-08-31T11:47:23;17.40;1.00
262;DHT22;114;48.260;10.988;2023-08-31T11:49:51;17.80;1.00
262;DHT22;114;48.260;10.988;2023-08-31T11:52:17;17.90;1.00
262;DHT22;114;48.260;10.988;2023-08-31T11:54:43;17.90;1.00
262;DHT22;114;48.260;10.988;2023-08-31T11:57:10;17.80;1.00
262;DHT22;114;48.260;10.988;2023-08-31T11:59:38;17.60;1.00
262;DHT22;114;48.260;10.988;2023-08-31T12:02:07;17.50;1.00
262;DHT22;114;48.260;10.988;2023-08-31T12:04:44;17.60;1.00
262;DHT22;114;48.260;10.988;2023-08-31T12:07:11;17.50;1.00
262;DHT22;114;48.260;10.988;2023-08-31T12:09:37;17.60;1.00
262;DHT22;114;48.260;10.988;2023-08-31T12:12:03;17.50;1.00
262;DHT22;114;48.260;10.988;2023-08-31T12:14:30;17.70;1.00
262;DHT22;114;48.260;10.988;2023-08-31T12:17:04;17.80;1.00
262;DHT22;114;48.260;10.988;2023-08-31T12:19:31;17.70;1.00
262;DHT22;114;48.260;10.988;2023-08-31T12:21:57;17.70;1.00
262;DHT22;114;48.260;10.988;2023-08-31T12:24:23;17.70;1.00
262;DHT22;114;48.260;10.988;2023-08-31T12:26:50;17.60;1.00
262;DHT22;114;48.260;10.988;2023-08-31T12:29:16;17.60;1.00
262;DHT22;114;48.260;10.988;2023-08-31T12:31:42;17.40;1.00
262;DHT22;114;48.260;10.988;2023-08-31T12:34:09;17.40;1.00
262;DHT22;114;48.260;10.988;2023-08-31T12:36:35;17.60;1.00
262;DHT22;114;48.260;10.988;2023-08-31T12:39:07;17.70;1.00
262;DHT22;114;48.260;10.988;2023-08-31T12:41:36;17.70;1.00
262;DHT22;114;48.260;10.988;2023-08-31T12:44:03;17.90;1.00
262;DHT22;114;48.260;10.988;2023-08-31T12:46:29;18.20;1.00
262;DHT22;114;48.260;10.988;2023-08-31T12:48:55;18.70;1.00
262;DHT22;114;48.260;10.988;2023-08-31T12:51:21;19.50;1.00
262;DHT22;114;48.260;10.988;2023-08-31T12:53:47;20.10;1.00
262;DHT22;114;48.260;10.988;2023-08-31T12:56:13;20.80;1.00
262;DHT22;114;48.260;10.988;2023-08-31T12:58:40;21.10;1.00
262;DHT22;114;48.260;10.988;2023-08-31T13:01:06;20.50;1.00
262;DHT22;114;48.260;10.988;2023-08-31T13:03:32;20.00;1.00
262;DHT22;114;48.260;10.988;2023-08-31T13:05:58;21.10;1.00
262;DHT22;114;48.260;10.988;2023-08-31T13:08:24;21.70;1.00
262;DHT22;114;48.260;10.988;2023-08-31T13:10:54;22.50;1.00
262;DHT22;114;48.260;10.988;2023-08-31T13:13:21;22.90;1.00
262;DHT22;114;48.260;10.988;2023-08-31T13:15:47;23.20;1.00
262;DHT22;114;48.260;10.988;2023-08-31T13:18:13;23.40;1.00
262;DHT22;114;48.260;10.988;2023-08-31T13:20:39;23.80;1.00
262;DHT22;114;48.260;10.988;2023-08-31T13:23:07;23.20;1.00
262;DHT22;114;48.260;10.988;2023-08-31T13:25:33;21.90;1.00
262;DHT22;114;48.260;10.988;2023-08-31T13:27:58;20.80;1.00
262;DHT22;114;48.260;10.988;2023-08-31T13:30:24;20.20;1.00
262;DHT22;114;48.260;10.988;2023-08-31T13:32:50;20.30;1.00
262;DHT22;114;48.260;10.988;2023-08-31T13:35:16;20.30;1.00
262;DHT22;114;48.260;10.988;2023-08-31T13:37:42;19.90;1.00
262;DHT22;114;48.260;10.988;2023-08-31T13:40:15;19.90;1.00
262;DHT22;114;48.260;10.988;2023-08-31T13:42:53;19.70;1.00
262;DHT22;114;48.260;10.988;2023-08-31T13:45:19;19.90;1.00
262;DHT22;114;48.260;10.988;2023-08-31T13:47:45;19.80;1.00
262;DHT22;114;48.260;10.988;2023-08-31T13:50:17;19.90;1.00
262;DHT22;114;48.260;10.988;2023-08-31T13:52:44;19.50;1.00
262;DHT22;114;48.260;10.988;2023-08-31T13:55:10;19.50;1.00
262;DHT22;114;48.260;10.988;2023-08-31T13:57:35;19.80;1.00
262;DHT22;114;48.260;10.988;2023-08-31T14:00:01;20.20;1.00
262;DHT22;114;48.260;10.988;2023-08-31T14:02:29;20.50;1.00
262;DHT22;114;48.260;10.988;2023-08-31T14:04:55;20.40;1.00
262;DHT22;114;48.260;10.988;2023-08-31T14:07:21;20.40;1.00
262;DHT22;114;48.260;10.988;2023-08-31T14:09:46;20.80;1.00
262;DHT22;114;48.260;10.988;2023-08-31T14:12:12;20.70;1.00
262;DHT22;114;48.260;10.988;2023-08-31T14:14:38;20.40;1.00
262;DHT22;114;48.260;10.988;2023-08-31T14:17:04;20.30;1.00
262;DHT22;114;48.260;10.988;2023-08-31T14:19:32;20.10;1.00
262;DHT22;114;48.260;10.988;2023-08-31T14:22:05;19.80;1.00
262;DHT22;114;48.260;10.988;2023-08-31T14:24:32;19.90;1.00
262;DHT22;114;48.260;10.988;2023-08-31T14:26:58;19.70;1.00
262;DHT22;114;48.260;10.988;2023-08-31T14:29:25;19.90;1.00
262;DHT22;114;48.260;10.988;2023-08-31T14:31:50;20.10;1.00
262;DHT22;114;48.260;10.988;2023-08-31T14:34:18;20.00;1.00
262;DHT22;114;48.260;10.988;2023-08-31T14:36:44;19.80;1.00
262;DHT22;114;48.260;10.988;2023-08-31T14:39:10;20.10;1.00
262;DHT22;114;48.260;10.988;2023-08-31T14:41:35;20.20;1.00
262;DHT22;114;48.260;10.988;2023-08-31T14:44:01;20.40;1.00
262;DHT22;114;48.260;10.988;2023-08-31T14:46:27;20.30;1.00
262;DHT22;114;48.260;10.988;2023-08-31T14:48:55;20.20;1.00
262;DHT22;114;48.260;10.988;2023-08-31T14:51:21;20.30;1.00
262;DHT22;114;48.260;10.988;2023-08-31T14:53:47;20.20;1.00
262;DHT22;114;48.260;10.988;2023-08-31T14:56:13;20.30;1.00
262;DHT22;114;48.260;10.988;2023-08-31T14:58:39;20.40;1.00
262;DHT22;114;48.260;10.988;2023-08-31T15:01:04;21.00;1.00
262;DHT22;114;48.260;10.988;2023-08-31T15:03:30;22.20;1.00
262;DHT22;114;48.260;10.988;2023-08-31T15:05:56;23.00;1.00
262;DHT22;114;48.260;10.988;2023-08-31T15:08:34;23.50;1.00
262;DHT22;114;48.260;10.988;2023-08-31T15:11:01;23.50;1.00
262;DHT22;114;48.260;10.988;2023-08-31T15:13:28;23.80;1.00
262;DHT22;114;48.260;10.988;2023-08-31T15:15:53;24.10;1.00
262;DHT22;114;48.260;10.988;2023-08-31T15:18:19;23.60;1.00
262;DHT22;114;48.260;10.988;2023-08-31T15:20:45;23.40;1.00
262;DHT22;114;48.260;10.988;2023-08-31T15:23:12;23.80;1.00
262;DHT22;114;48.260;10.988;2023-08-31T15:25:39;23.60;1.00
262;DHT22;114;48.260;10.988;2023-08-31T15:28:05;24.00;1.00
262;DHT22;114;48.260;10.988;2023-08-31T15:30:31;24.30;1.00
262;DHT22;114;48.260;10.988;2023-08-31T15:33:05;23.50;1.00
262;DHT22;114;48.260;10.988;2023-08-31T15:35:31;22.40;1.00
262;DHT22;114;48.260;10.988;2023-08-31T15:37:58;21.90;1.00
262;DHT22;114;48.260;10.988;2023-08-31T15:40:25;21.40;1.00
262;DHT22;114;48.260;10.988;2023-08-31T15:42:51;21.30;1.00
262;DHT22;114;48.260;10.988;2023-08-31T15:45:17;20.90;1.00
262;DHT22;114;48.260;10.988;2023-08-31T15:47:44;20.30;1.00
262;DHT22;114;48.260;10.988;2023-08-31T15:50:10;19.90;1.00
262;DHT22;114;48.260;10.988;2023-08-31T15:52:36;19.90;1.00
262;DHT22;114;48.260;10.988;2023-08-31T15:55:03;19.70;1.00
262;DHT22;114;48.260;10.988;2023-08-31T15:57:30;19.40;1.00
262;DHT22;114;48.260;10.988;2023-08-31T15:59:59;19.30;1.00
262;DHT22;114;48.260;10.988;2023-08-31T16:02:26;19.30;1.00
262;DHT22;114;48.260;10.988;2023-08-31T16:04:55;19.20;1.00
262;DHT22;114;48.260;10.988;2023-08-31T16:07:20;19.20;1.00
262;DHT22;114;48.260;10.988;2023-08-31T16:09:52;19.20;1.00
262;DHT22;114;48.260;10.988;2023-08-31T16:12:19;18.90;1.00
262;DHT22;114;48.260;10.988;2023-08-31T16:14:48;18.80;1.00
262;DHT22;114;48.260;10.988;2023-08-31T16:17:14;18.80;1.00
262;DHT22;114;48.260;10.988;2023-08-31T16:19:40;18.70;1.00
262;DHT22;114;48.260;10.988;2023-08-31T16:22:06;18.60;1.00
262;DHT22;114;48.260;10.988;2023-08-31T16:24:31;18.60;1.00
262;DHT22;114;48.260;10.988;2023-08-31T16:26:57;18.70;1.00
262;DHT22;114;48.260;10.988;2023-08-31T16:29:23;18.60;1.00
262;DHT22;114;48.260;10.988;2023-08-31T16:31:49;18.50;1.00
262;DHT22;114;48.260;10.988;2023-08-31T16:34:15;18.60;1.00
262;DHT22;114;48.260;10.988;2023-08-31T16:36:42;18.60;1.00
262;DHT22;114;48.260;10.988;2023-08-31T16:39:08;18.60;1.00
262;DHT22;114;48.260;10.988;2023-08-31T16:41:34;18.60;1.00
262;DHT22;114;48.260;10.988;2023-08-31T16:44:00;18.60;1.00
262;DHT22;114;48.260;10.988;2023-08-31T16:46:25;18.50;1.00
262;DHT22;114;48.260;10.988;2023-08-31T16:48:51;18.40;1.00
262;DHT22;114;48.260;10.988;2023-08-31T16:51:17;18.20;1.00